createdAt,value
2018-06-19T00:00:13.328Z,18.96
2018-06-19T00:01:13.303Z,18.92
2018-06-19T00:02:13.292Z,18.88
2018-06-19T00:03:13.254Z,18.81
2018-06-19T00:04:13.243Z,18.81
2018-06-19T00:05:13.203Z,18.86
2018-06-19T00:06:13.199Z,18.90
2018-06-19T00:07:13.155Z,18.83
2018-06-19T00:08:13.126Z,18.80
2018-06-19T00:09:13.122Z,18.83
2018-06-19T00:10:13.078Z,18.81
2018-06-19T00:11:13.062Z,18.75
2018-06-19T00:12:13.046Z,18.78
2018-06-19T00:13:13.012Z,18.78
2018-06-19T00:14:12.985Z,18.83
2018-06-19T00:15:12.962Z,18.81
2018-06-19T00:16:12.934Z,18.68
2018-06-19T00:17:12.914Z,18.63
2018-06-19T00:18:12.886Z,18.63
2018-06-19T00:19:12.858Z,18.83
2018-06-19T00:20:12.842Z,18.78
2018-06-19T00:21:12.811Z,18.73
2018-06-19T00:22:12.794Z,18.75
2018-06-19T00:23:12.768Z,18.63
2018-06-19T00:24:12.744Z,18.65
2018-06-19T00:25:12.714Z,18.65
2018-06-19T00:26:12.687Z,18.66
2018-06-19T00:27:12.662Z,18.60
2018-06-19T00:28:12.643Z,18.63
2018-06-19T00:29:12.614Z,18.58
2018-06-19T00:30:12.590Z,18.49
2018-06-19T00:31:12.574Z,18.43
2018-06-19T00:32:12.536Z,18.53
2018-06-19T00:33:12.520Z,18.50
2018-06-19T00:34:12.495Z,18.49
2018-06-19T00:35:12.468Z,18.47
2018-06-19T00:36:12.439Z,18.52
2018-06-19T00:37:12.417Z,18.53
2018-06-19T00:38:12.395Z,18.45
2018-06-19T00:39:12.370Z,18.49
2018-06-19T00:40:12.339Z,18.43
2018-06-19T00:41:12.322Z,18.49
2018-06-19T00:42:12.295Z,18.49
2018-06-19T00:43:12.281Z,18.47
2018-06-19T00:44:12.242Z,18.43
2018-06-19T00:45:12.221Z,18.49
2018-06-19T00:46:12.194Z,18.41
2018-06-19T00:47:12.169Z,18.52
2018-06-19T00:48:12.152Z,18.52
2018-06-19T00:49:12.128Z,18.47
2018-06-19T00:50:12.092Z,18.45
2018-06-19T00:51:12.070Z,18.52
2018-06-19T00:52:12.049Z,18.52
2018-06-19T00:53:12.019Z,18.45
2018-06-19T00:54:11.998Z,18.50
2018-06-19T00:55:11.969Z,18.45
2018-06-19T00:56:11.948Z,18.49
2018-06-19T00:57:11.930Z,18.45
2018-06-19T00:58:11.896Z,18.38
2018-06-19T00:59:11.880Z,18.44
2018-06-19T01:00:11.845Z,18.38
2018-06-19T01:01:11.826Z,18.35
2018-06-19T01:02:11.807Z,18.29
2018-06-19T01:03:11.779Z,18.25
2018-06-19T01:04:11.751Z,18.29
2018-06-19T01:05:11.725Z,18.28
2018-06-19T01:06:11.704Z,18.33
2018-06-19T01:07:11.678Z,18.41
2018-06-19T01:08:11.654Z,18.38
2018-06-19T01:09:11.629Z,18.37
2018-06-19T01:10:11.601Z,18.31
2018-06-19T01:11:11.601Z,18.41
2018-06-19T01:12:11.565Z,18.44
2018-06-19T01:13:11.537Z,18.38
2018-06-19T01:14:11.520Z,18.45
2018-06-19T01:15:11.476Z,18.40
2018-06-19T01:16:11.461Z,18.38
2018-06-19T01:17:11.456Z,18.43
2018-06-19T01:18:11.402Z,18.35
2018-06-19T01:19:11.386Z,18.37
2018-06-19T01:20:11.363Z,18.38
2018-06-19T01:21:11.327Z,18.47
2018-06-19T01:22:11.308Z,18.50
2018-06-19T01:23:11.290Z,18.50
2018-06-19T01:24:11.263Z,18.50
2018-06-19T01:25:11.230Z,18.52
2018-06-19T01:26:11.212Z,18.47
2018-06-19T01:27:11.185Z,18.45
2018-06-19T01:28:11.157Z,18.53
2018-06-19T01:29:11.140Z,18.49
2018-06-19T01:30:11.109Z,18.49
2018-06-19T01:31:11.087Z,18.49
2018-06-19T01:32:11.067Z,18.49
2018-06-19T01:33:11.032Z,18.45
2018-06-19T01:34:11.020Z,18.55
2018-06-19T01:35:10.998Z,18.56
2018-06-19T01:36:10.962Z,18.45
2018-06-19T01:37:10.938Z,18.58
2018-06-19T01:38:10.980Z,18.53
2018-06-19T01:39:10.903Z,18.58
2018-06-19T01:40:10.868Z,18.53
2018-06-19T01:41:10.837Z,18.50
2018-06-19T01:42:10.826Z,18.50
2018-06-19T01:43:10.788Z,18.45
2018-06-19T01:44:10.765Z,18.45
2018-06-19T01:45:10.742Z,18.47
2018-06-19T01:46:10.717Z,18.56
2018-06-19T01:47:10.692Z,18.50
2018-06-19T01:48:10.681Z,18.52
2018-06-19T01:49:10.649Z,18.50
2018-06-19T01:50:10.620Z,18.56
2018-06-19T01:51:10.612Z,18.59
2018-06-19T01:52:10.565Z,18.59
2018-06-19T01:53:10.551Z,18.59
2018-06-19T01:54:10.532Z,18.60
2018-06-19T01:55:10.496Z,18.50
2018-06-19T01:56:10.469Z,18.53
2018-06-19T01:57:10.446Z,18.43
2018-06-19T01:58:10.420Z,18.45
2018-06-19T01:59:10.399Z,18.50
2018-06-19T02:00:10.382Z,18.53
2018-06-19T02:01:10.344Z,18.52
2018-06-19T02:02:10.329Z,18.49
2018-06-19T02:03:10.300Z,18.52
2018-06-19T02:04:10.272Z,18.44
2018-06-19T02:05:10.257Z,18.38
2018-06-19T02:06:10.227Z,18.37
2018-06-19T02:07:10.206Z,18.40
2018-06-19T02:08:10.172Z,18.37
2018-06-19T02:09:10.152Z,18.38
2018-06-19T02:10:10.125Z,18.29
2018-06-19T02:11:10.102Z,18.26
2018-06-19T02:12:10.084Z,18.34
2018-06-19T02:13:10.059Z,18.25
2018-06-19T02:14:10.027Z,18.25
2018-06-19T02:15:10.002Z,18.18
2018-06-19T02:16:09.977Z,18.16
2018-06-19T02:17:09.953Z,18.13
2018-06-19T02:18:09.931Z,18.19
2018-06-19T02:19:09.902Z,18.16
2018-06-19T02:20:09.882Z,18.10
2018-06-19T02:21:09.859Z,18.15
2018-06-19T02:22:09.830Z,18.19
2018-06-19T02:23:09.803Z,18.15
2018-06-19T02:24:09.788Z,18.16
2018-06-19T02:25:09.770Z,18.13
2018-06-19T02:26:09.734Z,18.20
2018-06-19T02:27:09.707Z,18.33
2018-06-19T02:28:09.685Z,18.28
2018-06-19T02:29:09.659Z,18.33
2018-06-19T02:30:09.633Z,18.41
2018-06-19T02:31:09.608Z,18.43
2018-06-19T02:32:09.583Z,18.37
2018-06-19T02:33:09.555Z,18.47
2018-06-19T02:34:09.541Z,18.52
2018-06-19T02:35:09.510Z,18.58
2018-06-19T02:36:09.490Z,18.58
2018-06-19T02:37:09.479Z,18.50
2018-06-19T02:38:09.433Z,18.49
2018-06-19T02:39:09.412Z,18.49
2018-06-19T02:40:09.388Z,18.53
2018-06-19T02:41:09.363Z,18.45
2018-06-19T02:42:09.348Z,18.53
2018-06-19T02:43:09.308Z,18.55
2018-06-19T02:44:09.292Z,18.50
2018-06-19T02:45:09.267Z,18.62
2018-06-19T02:46:09.235Z,18.56
2018-06-19T02:47:09.217Z,18.45
2018-06-19T02:48:09.185Z,18.55
2018-06-19T02:49:09.165Z,18.56
2018-06-19T02:50:09.141Z,18.59
2018-06-19T02:51:09.115Z,18.50
2018-06-19T02:52:09.091Z,18.45
2018-06-19T02:53:09.067Z,18.50
2018-06-19T02:54:09.039Z,18.44
2018-06-19T02:55:09.014Z,18.49
2018-06-19T02:56:09.037Z,18.47
2018-06-19T02:57:08.972Z,18.44
2018-06-19T02:58:08.937Z,18.55
2018-06-19T02:59:08.926Z,18.45
2018-06-19T03:00:08.895Z,18.56
2018-06-19T03:01:08.864Z,18.53
2018-06-19T03:02:08.851Z,18.53
2018-06-19T03:03:08.815Z,18.49
2018-06-19T03:04:08.840Z,18.44
2018-06-19T03:05:08.765Z,18.35
2018-06-19T03:06:08.749Z,18.43
2018-06-19T03:07:08.720Z,18.38
2018-06-19T03:08:08.701Z,18.28
2018-06-19T03:09:08.677Z,18.29
2018-06-19T03:10:08.641Z,18.31
2018-06-19T03:11:08.617Z,18.33
2018-06-19T03:12:08.598Z,18.28
2018-06-19T03:13:08.567Z,18.40
2018-06-19T03:14:08.553Z,18.41
2018-06-19T03:15:08.525Z,18.47
2018-06-19T03:16:08.497Z,18.52
2018-06-19T03:17:08.470Z,18.49
2018-06-19T03:18:08.450Z,18.55
2018-06-19T03:19:08.426Z,18.62
2018-06-19T03:20:08.401Z,18.62
2018-06-19T03:21:08.371Z,18.63
2018-06-19T03:22:08.350Z,18.65
2018-06-19T03:23:08.323Z,18.68
2018-06-19T03:24:08.305Z,18.65
2018-06-19T03:25:08.325Z,18.70
2018-06-19T03:26:08.249Z,18.75
2018-06-19T03:27:08.229Z,18.63
2018-06-19T03:28:08.203Z,18.73
2018-06-19T03:29:08.175Z,18.56
2018-06-19T03:30:08.228Z,18.56
2018-06-19T03:31:08.128Z,18.63
2018-06-19T03:32:08.103Z,18.75
2018-06-19T03:33:08.075Z,18.75
2018-06-19T03:34:08.059Z,18.80
2018-06-19T03:35:08.068Z,18.77
2018-06-19T03:36:08.010Z,18.84
2018-06-19T03:37:07.976Z,18.75
2018-06-19T03:38:07.961Z,18.78
2018-06-19T03:39:07.932Z,18.78
2018-06-19T03:40:07.910Z,18.66
2018-06-19T03:41:07.887Z,18.78
2018-06-19T03:42:07.851Z,18.80
2018-06-19T03:43:07.836Z,18.77
2018-06-19T03:44:07.801Z,18.66
2018-06-19T03:45:07.779Z,18.74
2018-06-19T03:46:07.756Z,18.63
2018-06-19T03:47:07.734Z,18.56
2018-06-19T03:48:07.714Z,18.60
2018-06-19T03:49:07.681Z,18.70
2018-06-19T03:50:07.662Z,18.77
2018-06-19T03:51:07.640Z,18.81
2018-06-19T03:52:07.615Z,18.77
2018-06-19T03:53:07.604Z,18.81
2018-06-19T03:54:07.561Z,18.59
2018-06-19T03:55:07.535Z,18.63
2018-06-19T03:56:07.511Z,18.56
2018-06-19T03:57:07.486Z,18.47
2018-06-19T03:58:07.457Z,18.53
2018-06-19T03:59:07.441Z,18.50
2018-06-19T04:00:07.408Z,18.53
2018-06-19T04:01:07.385Z,18.50
2018-06-19T04:02:07.367Z,18.50
2018-06-19T04:03:07.364Z,18.40
2018-06-19T04:04:07.314Z,18.41
2018-06-19T04:05:07.289Z,18.41
2018-06-19T04:06:07.265Z,18.41
2018-06-19T04:07:07.235Z,18.50
2018-06-19T04:08:07.219Z,18.50
2018-06-19T04:09:07.192Z,18.50
2018-06-19T04:10:07.161Z,18.53
2018-06-19T04:11:07.135Z,18.52
2018-06-19T04:12:07.117Z,18.50
2018-06-19T04:13:07.105Z,18.44
2018-06-19T04:14:07.066Z,18.52
2018-06-19T04:15:07.043Z,18.49
2018-06-19T04:16:07.019Z,18.50
2018-06-19T04:17:07.046Z,18.45
2018-06-19T04:18:06.969Z,18.50
2018-06-19T04:19:06.960Z,18.43
2018-06-19T04:20:06.920Z,18.53
2018-06-19T04:21:06.915Z,18.45
2018-06-19T04:22:06.870Z,18.49
2018-06-19T04:23:06.842Z,18.40
2018-06-19T04:24:06.813Z,18.37
2018-06-19T04:25:06.799Z,18.53
2018-06-19T04:26:06.762Z,18.50
2018-06-19T04:27:06.742Z,18.41
2018-06-19T04:28:06.722Z,18.31
2018-06-19T04:29:06.690Z,18.26
2018-06-19T04:30:06.672Z,18.35
2018-06-19T04:31:06.644Z,18.37
2018-06-19T04:32:06.616Z,18.43
2018-06-19T04:33:06.601Z,18.37
2018-06-19T04:34:06.565Z,18.41
2018-06-19T04:35:06.552Z,18.49
2018-06-19T04:36:06.516Z,18.38
2018-06-19T04:37:06.490Z,18.47
2018-06-19T04:38:06.475Z,18.43
2018-06-19T04:39:06.442Z,18.55
2018-06-19T04:40:06.424Z,18.60
2018-06-19T04:41:06.403Z,18.58
2018-06-19T04:42:06.393Z,18.45
2018-06-19T04:43:06.353Z,18.47
2018-06-19T04:44:06.317Z,18.50
2018-06-19T04:45:06.295Z,18.55
2018-06-19T04:46:06.271Z,18.44
2018-06-19T04:47:06.254Z,18.45
2018-06-19T04:48:06.218Z,18.45
2018-06-19T04:49:06.197Z,18.55
2018-06-19T04:50:06.179Z,18.62
2018-06-19T04:51:06.146Z,18.63
2018-06-19T04:52:06.131Z,18.63
2018-06-19T04:53:06.104Z,18.62
2018-06-19T04:54:06.071Z,18.53
2018-06-19T04:55:06.053Z,18.45
2018-06-19T04:56:06.020Z,18.52
2018-06-19T04:57:05.998Z,18.40
2018-06-19T04:58:05.977Z,18.33
2018-06-19T04:59:05.953Z,18.37
2018-06-19T05:00:05.926Z,18.40
2018-06-19T05:01:05.902Z,18.53
2018-06-19T05:02:05.892Z,18.52
2018-06-19T05:03:05.847Z,18.45
2018-06-19T05:04:05.829Z,18.49
2018-06-19T05:05:05.805Z,18.60
2018-06-19T05:06:05.772Z,18.49
2018-06-19T05:07:05.752Z,18.50
2018-06-19T05:08:05.730Z,18.49
2018-06-19T05:09:05.702Z,18.53
2018-06-19T05:10:05.679Z,18.35
2018-06-19T05:11:05.649Z,18.25
2018-06-19T05:12:05.624Z,18.45
2018-06-19T05:13:05.605Z,18.43
2018-06-19T05:14:05.575Z,18.53
2018-06-19T05:15:05.552Z,18.62
2018-06-19T05:16:05.532Z,18.62
2018-06-19T05:17:05.504Z,18.62
2018-06-19T05:18:05.485Z,18.63
2018-06-19T05:19:05.461Z,18.58
2018-06-19T05:20:05.426Z,18.52
2018-06-19T05:21:05.406Z,18.55
2018-06-19T05:22:05.381Z,18.53
2018-06-19T05:23:05.358Z,18.59
2018-06-19T05:24:05.331Z,18.53
2018-06-19T05:25:05.306Z,18.43
2018-06-19T05:26:05.281Z,18.44
2018-06-19T05:27:05.260Z,18.50
2018-06-19T05:28:05.233Z,18.55
2018-06-19T05:29:05.214Z,18.50
2018-06-19T05:30:05.180Z,18.53
2018-06-19T05:31:05.157Z,18.55
2018-06-19T05:32:05.135Z,18.68
2018-06-19T05:33:05.103Z,18.65
2018-06-19T05:34:05.094Z,18.73
2018-06-19T05:35:05.117Z,18.74
2018-06-19T05:36:05.034Z,18.81
2018-06-19T05:37:05.017Z,18.77
2018-06-19T05:38:04.990Z,18.77
2018-06-19T05:39:04.975Z,18.80
2018-06-19T05:40:04.944Z,18.84
2018-06-19T05:41:04.910Z,18.90
2018-06-19T05:42:04.895Z,19.00
2018-06-19T05:43:04.865Z,18.86
2018-06-19T05:44:04.842Z,18.89
2018-06-19T05:45:04.813Z,18.88
2018-06-19T05:46:04.787Z,18.88
2018-06-19T05:47:04.769Z,18.88
2018-06-19T05:48:04.737Z,18.88
2018-06-19T05:49:04.713Z,18.88
2018-06-19T05:50:04.701Z,18.81
2018-06-19T05:51:04.667Z,18.93
2018-06-19T05:52:04.643Z,18.84
2018-06-19T05:53:04.618Z,18.77
2018-06-19T05:54:04.593Z,18.81
2018-06-19T05:55:04.569Z,18.90
2018-06-19T05:56:04.545Z,18.88
2018-06-19T05:57:04.518Z,18.75
2018-06-19T05:58:04.495Z,18.86
2018-06-19T05:59:04.468Z,18.75
2018-06-19T06:00:04.501Z,18.81
2018-06-19T06:01:04.418Z,18.80
2018-06-19T06:02:04.398Z,18.84
2018-06-19T06:03:04.370Z,18.86
2018-06-19T06:04:04.359Z,18.96
2018-06-19T06:05:04.343Z,19.00
2018-06-19T06:06:04.296Z,19.00
2018-06-19T06:07:04.279Z,19.11
2018-06-19T06:08:04.247Z,19.09
2018-06-19T06:09:04.221Z,19.12
2018-06-19T06:10:04.205Z,19.16
2018-06-19T06:11:04.181Z,19.21
2018-06-19T06:12:04.156Z,19.30
2018-06-19T06:13:04.130Z,19.33
2018-06-19T06:14:04.097Z,19.30
2018-06-19T06:15:04.082Z,19.27
2018-06-19T06:16:04.048Z,19.24
2018-06-19T06:17:04.027Z,19.22
2018-06-19T06:18:04.010Z,19.19
2018-06-19T06:19:03.984Z,19.22
2018-06-19T06:20:03.956Z,19.36
2018-06-19T06:21:03.934Z,19.34
2018-06-19T06:22:03.921Z,19.30
2018-06-19T06:23:03.878Z,19.47
2018-06-19T06:24:03.860Z,19.41
2018-06-19T06:25:03.829Z,19.45
2018-06-19T06:26:03.808Z,19.37
2018-06-19T06:27:03.781Z,19.39
2018-06-19T06:28:03.758Z,19.40
2018-06-19T06:29:03.734Z,19.41
2018-06-19T06:30:03.707Z,19.40
2018-06-19T06:31:03.687Z,19.34
2018-06-19T06:32:03.659Z,19.37
2018-06-19T06:33:03.629Z,19.41
2018-06-19T06:34:03.617Z,19.44
2018-06-19T06:35:03.583Z,19.36
2018-06-19T06:36:03.561Z,19.41
2018-06-19T06:37:03.616Z,19.39
2018-06-19T06:38:03.538Z,19.41
2018-06-19T06:39:03.496Z,19.33
2018-06-19T06:40:03.463Z,19.39
2018-06-19T06:41:03.440Z,19.49
2018-06-19T06:42:03.422Z,19.45
2018-06-19T06:43:03.394Z,19.48
2018-06-19T06:44:03.386Z,19.52
2018-06-19T06:45:03.349Z,19.70
2018-06-19T06:46:03.318Z,19.81
2018-06-19T06:47:03.294Z,19.76
2018-06-19T06:48:03.270Z,19.79
2018-06-19T06:49:03.250Z,19.79
2018-06-19T06:50:03.223Z,19.67
2018-06-19T06:51:03.201Z,19.66
2018-06-19T06:52:03.178Z,19.67
2018-06-19T06:53:03.152Z,19.59
2018-06-19T06:54:03.122Z,19.59
2018-06-19T06:55:03.097Z,19.54
2018-06-19T06:56:03.081Z,19.44
2018-06-19T06:57:03.054Z,19.41
2018-06-19T06:58:03.049Z,19.37
2018-06-19T06:59:03.052Z,19.40
2018-06-19T07:00:02.993Z,19.45
2018-06-19T07:01:02.956Z,19.37
2018-06-19T07:02:02.942Z,19.56
2018-06-19T07:03:02.907Z,19.49
2018-06-19T07:04:02.880Z,19.54
2018-06-19T07:05:02.855Z,19.56
2018-06-19T07:06:02.880Z,19.51
2018-06-19T07:07:02.811Z,19.48
2018-06-19T07:08:02.819Z,19.41
2018-06-19T07:09:02.757Z,19.52
2018-06-19T07:10:02.808Z,19.37
2018-06-19T07:11:02.720Z,19.45
2018-06-19T07:12:02.689Z,19.40
2018-06-19T07:13:02.658Z,19.48
2018-06-19T07:14:02.642Z,19.44
2018-06-19T07:15:02.616Z,19.34
2018-06-19T07:16:02.592Z,19.37
2018-06-19T07:17:02.567Z,19.37
2018-06-19T07:18:02.536Z,19.37
2018-06-19T07:19:02.587Z,19.37
2018-06-19T07:20:02.485Z,19.39
2018-06-19T07:21:02.481Z,19.34
2018-06-19T07:22:02.440Z,19.39
2018-06-19T07:23:02.419Z,19.41
2018-06-19T07:24:02.393Z,19.39
2018-06-19T07:25:02.382Z,19.31
2018-06-19T07:26:02.382Z,19.41
2018-06-19T07:27:02.326Z,19.41
2018-06-19T07:28:02.295Z,19.37
2018-06-19T07:29:02.268Z,19.29
2018-06-19T07:30:02.247Z,19.26
2018-06-19T07:31:02.222Z,19.30
2018-06-19T07:32:02.264Z,19.27
2018-06-19T07:33:02.173Z,19.27
2018-06-19T07:34:02.146Z,19.30
2018-06-19T07:35:02.126Z,19.21
2018-06-19T07:36:02.097Z,19.29
2018-06-19T07:37:02.076Z,19.36
2018-06-19T07:38:02.094Z,19.34
2018-06-19T07:39:02.026Z,19.37
2018-06-19T07:40:02.007Z,19.27
2018-06-19T07:41:01.972Z,19.41
2018-06-19T07:42:01.957Z,19.49
2018-06-19T07:43:01.931Z,19.56
2018-06-19T07:44:01.914Z,19.58
2018-06-19T07:45:01.872Z,19.54
2018-06-19T07:46:01.858Z,19.41
2018-06-19T07:47:01.830Z,19.59
2018-06-19T07:48:01.804Z,19.55
2018-06-19T07:49:01.788Z,19.56
2018-06-19T07:50:01.752Z,19.48
2018-06-19T07:51:01.731Z,19.59
2018-06-19T07:52:01.719Z,19.58
2018-06-19T07:53:01.688Z,19.62
2018-06-19T07:54:01.655Z,19.55
2018-06-19T07:55:01.636Z,19.67
2018-06-19T07:56:01.606Z,19.70
2018-06-19T07:57:01.579Z,19.62
2018-06-19T07:58:01.560Z,19.71
2018-06-19T07:59:01.533Z,19.71
2018-06-19T08:00:01.519Z,19.62
2018-06-19T08:01:01.487Z,19.67
2018-06-19T08:02:01.464Z,19.70
2018-06-19T08:03:01.439Z,19.71
2018-06-19T08:04:01.419Z,19.66
2018-06-19T08:05:01.409Z,19.63
2018-06-19T08:06:01.384Z,19.62
2018-06-19T08:07:01.343Z,19.63
2018-06-19T08:08:01.342Z,19.64
2018-06-19T08:09:01.293Z,19.67
2018-06-19T08:10:01.273Z,19.71
2018-06-19T08:11:01.245Z,19.64
2018-06-19T08:12:01.244Z,19.62
2018-06-19T08:13:01.204Z,19.69
2018-06-19T08:14:01.167Z,19.70
2018-06-19T08:15:01.151Z,19.52
2018-06-19T08:16:01.117Z,19.56
2018-06-19T08:17:01.108Z,19.56
2018-06-19T08:18:01.070Z,19.58
2018-06-19T08:19:01.049Z,19.62
2018-06-19T08:20:01.020Z,19.70
2018-06-19T08:21:01.001Z,19.69
2018-06-19T08:22:01.053Z,19.76
2018-06-19T08:23:00.961Z,19.81
2018-06-19T08:24:00.936Z,19.76
2018-06-19T08:25:00.905Z,19.76
2018-06-19T08:26:00.970Z,19.73
2018-06-19T08:27:00.852Z,19.73
2018-06-19T08:28:00.828Z,19.77
2018-06-19T08:29:00.800Z,19.81
2018-06-19T08:30:00.786Z,19.74
2018-06-19T08:31:00.766Z,19.62
2018-06-19T08:32:00.731Z,19.59
2018-06-19T08:33:00.707Z,19.62
2018-06-19T08:34:00.685Z,19.71
2018-06-19T08:35:00.657Z,19.71
2018-06-19T08:36:00.636Z,19.66
2018-06-19T08:37:00.694Z,19.51
2018-06-19T08:38:00.595Z,19.56
2018-06-19T08:39:00.565Z,19.54
2018-06-19T08:40:00.536Z,19.63
2018-06-19T08:41:00.514Z,19.66
2018-06-19T08:42:00.487Z,19.77
2018-06-19T08:43:00.467Z,19.82
2018-06-19T08:44:00.435Z,19.89
2018-06-19T08:45:00.416Z,19.95
2018-06-19T08:46:00.391Z,20.02
2018-06-19T08:47:00.373Z,19.96
2018-06-19T08:48:00.381Z,20.09
2018-06-19T08:49:00.317Z,20.02
2018-06-19T08:50:00.291Z,19.95
2018-06-19T08:51:00.266Z,20.00
2018-06-19T08:52:00.253Z,19.85
2018-06-19T08:53:00.241Z,19.84
2018-06-19T08:54:00.197Z,19.74
2018-06-19T08:55:00.177Z,19.77
2018-06-19T08:56:00.142Z,19.94
2018-06-19T08:57:00.127Z,19.94
2018-06-19T08:58:00.109Z,19.94
2018-06-19T08:59:00.080Z,19.95
2018-06-19T09:00:00.057Z,20.03
2018-06-19T09:01:00.029Z,19.94
2018-06-19T09:02:00.000Z,19.95
2018-06-19T09:02:59.975Z,19.86
2018-06-19T09:03:59.960Z,19.77
2018-06-19T09:04:59.940Z,19.76
2018-06-19T09:05:59.902Z,19.77
2018-06-19T09:06:59.879Z,19.74
2018-06-19T09:07:59.861Z,19.79
2018-06-19T09:08:59.830Z,19.70
2018-06-19T09:09:59.817Z,19.71
2018-06-19T09:10:59.789Z,19.69
2018-06-19T09:11:59.770Z,19.58
2018-06-19T09:12:59.750Z,19.52
2018-06-19T09:13:59.718Z,19.52
2018-06-19T09:14:59.698Z,19.39
2018-06-19T09:15:59.660Z,19.44
2018-06-19T09:16:59.642Z,19.40
2018-06-19T09:17:59.610Z,19.40
2018-06-19T09:18:59.598Z,19.41
2018-06-19T09:19:59.631Z,19.37
2018-06-19T09:20:59.561Z,19.40
2018-06-19T09:21:59.517Z,19.39
2018-06-19T09:22:59.500Z,19.40
2018-06-19T09:23:59.472Z,19.40
2018-06-19T09:24:59.442Z,19.55
2018-06-19T09:25:59.429Z,19.47
2018-06-19T09:26:59.393Z,19.56
2018-06-19T09:27:59.373Z,19.59
2018-06-19T09:28:59.352Z,19.54
2018-06-19T09:29:59.318Z,19.51
2018-06-19T09:30:59.304Z,19.56
2018-06-19T09:31:59.270Z,19.70
2018-06-19T09:32:59.248Z,19.64
2018-06-19T09:33:59.232Z,19.64
2018-06-19T09:34:59.202Z,19.59
2018-06-19T09:35:59.174Z,19.64
2018-06-19T09:36:59.152Z,19.56
2018-06-19T09:37:59.132Z,19.48
2018-06-19T09:38:59.101Z,19.59
2018-06-19T09:39:59.117Z,19.51
2018-06-19T09:40:59.055Z,19.49
2018-06-19T09:41:59.027Z,19.52
2018-06-19T09:42:59.006Z,19.49
2018-06-19T09:43:58.976Z,19.63
2018-06-19T09:44:58.952Z,19.71
2018-06-19T09:45:58.935Z,19.74
2018-06-19T09:46:58.938Z,19.71
2018-06-19T09:47:58.894Z,19.81
2018-06-19T09:48:58.861Z,19.77
2018-06-19T09:49:58.832Z,19.89
2018-06-19T09:50:58.808Z,19.89
2018-06-19T09:51:58.786Z,19.94
2018-06-19T09:52:58.765Z,19.92
2018-06-19T09:53:58.815Z,20.06
2018-06-19T09:54:58.711Z,20.13
2018-06-19T09:55:58.693Z,20.21
2018-06-19T09:56:58.662Z,20.31
2018-06-19T09:57:58.643Z,20.19
2018-06-19T09:58:58.732Z,20.24
2018-06-19T09:59:58.588Z,20.29
2018-06-19T10:00:58.568Z,20.28
2018-06-19T10:01:58.545Z,20.25
2018-06-19T10:02:58.524Z,20.37
2018-06-19T10:03:58.496Z,20.39
2018-06-19T10:04:58.471Z,20.37
2018-06-19T10:05:58.450Z,20.40
2018-06-19T10:06:58.424Z,20.39
2018-06-19T10:07:58.398Z,20.32
2018-06-19T10:08:58.375Z,20.40
2018-06-19T10:09:58.362Z,20.41
2018-06-19T10:10:58.323Z,20.43
2018-06-19T10:11:58.404Z,20.47
2018-06-19T10:12:58.276Z,20.58
2018-06-19T10:13:58.257Z,20.58
2018-06-19T10:14:58.231Z,20.60
2018-06-19T10:15:58.203Z,20.72
2018-06-19T10:16:58.178Z,20.69
2018-06-19T10:17:58.159Z,20.66
2018-06-19T10:18:58.133Z,20.66
2018-06-19T10:19:58.111Z,20.65
2018-06-19T10:20:58.089Z,20.70
2018-06-19T10:21:58.061Z,20.74
2018-06-19T10:22:58.042Z,20.75
2018-06-19T10:23:58.007Z,20.72
2018-06-19T10:24:57.986Z,20.74
2018-06-19T10:25:57.967Z,20.75
2018-06-19T10:26:57.952Z,20.90
2018-06-19T10:27:57.910Z,20.92
2018-06-19T10:28:57.892Z,21.03
2018-06-19T10:29:57.899Z,21.09
2018-06-19T10:30:57.881Z,21.09
2018-06-19T10:31:57.836Z,21.11
2018-06-19T10:32:57.797Z,21.20
2018-06-19T10:33:57.773Z,21.12
2018-06-19T10:34:57.777Z,21.11
2018-06-19T10:35:57.724Z,21.03
2018-06-19T10:36:57.700Z,20.90
2018-06-19T10:37:57.672Z,20.90
2018-06-19T10:38:57.655Z,20.90
2018-06-19T10:39:57.630Z,21.05
2018-06-19T10:40:57.601Z,21.03
2018-06-19T10:41:57.585Z,21.03
2018-06-19T10:42:57.554Z,21.07
2018-06-19T10:43:57.538Z,21.02
2018-06-19T10:44:57.553Z,21.06
2018-06-19T10:45:57.541Z,21.09
2018-06-19T10:46:57.473Z,21.06
2018-06-19T10:47:57.439Z,21.00
2018-06-19T10:48:57.419Z,20.96
2018-06-19T10:49:57.387Z,20.93
2018-06-19T10:50:57.372Z,20.81
2018-06-19T10:51:57.343Z,20.95
2018-06-19T10:52:57.317Z,21.20
2018-06-19T10:53:57.305Z,21.29
2018-06-19T10:54:57.272Z,21.39
2018-06-19T10:55:57.267Z,21.45
2018-06-19T10:56:57.240Z,21.33
2018-06-19T10:57:57.222Z,21.39
2018-06-19T10:58:57.199Z,21.40
2018-06-19T10:59:57.154Z,21.37
2018-06-19T11:00:57.147Z,21.36
2018-06-19T11:01:57.121Z,21.32
2018-06-19T11:02:57.094Z,21.30
2018-06-19T11:03:57.075Z,21.27
2018-06-19T11:04:57.056Z,21.33
2018-06-19T11:05:57.030Z,21.30
2018-06-19T11:06:57.008Z,21.30
2018-06-19T11:07:56.983Z,21.35
2018-06-19T11:08:56.957Z,21.39
2018-06-19T11:09:56.930Z,21.42
2018-06-19T11:10:56.916Z,21.36
2018-06-19T11:11:56.883Z,21.40
2018-06-19T11:12:56.865Z,21.45
2018-06-19T11:13:56.844Z,21.55
2018-06-19T11:14:56.811Z,21.64
2018-06-19T11:15:56.797Z,21.73
2018-06-19T11:16:56.771Z,21.83
2018-06-19T11:17:56.745Z,21.92
2018-06-19T11:18:56.729Z,21.95
2018-06-19T11:19:56.705Z,21.93
2018-06-19T11:20:56.661Z,22.00
2018-06-19T11:21:56.630Z,21.96
2018-06-19T11:22:56.626Z,22.17
2018-06-19T11:23:56.653Z,22.23
2018-06-19T11:24:56.564Z,22.26
2018-06-19T11:25:56.538Z,22.36
2018-06-19T11:26:56.517Z,22.51
2018-06-19T11:27:56.490Z,22.57
2018-06-19T11:28:56.525Z,22.73
2018-06-19T11:29:56.449Z,22.83
2018-06-19T11:30:56.426Z,22.85
2018-06-19T11:31:56.394Z,22.73
2018-06-19T11:32:56.381Z,22.81
2018-06-19T11:33:56.351Z,22.91
2018-06-19T11:34:56.326Z,22.98
2018-06-19T11:35:56.311Z,23.10
2018-06-19T11:36:56.288Z,23.21
2018-06-19T11:37:56.258Z,23.08
2018-06-19T11:38:56.242Z,23.03
2018-06-19T11:39:56.236Z,23.17
2018-06-19T11:40:56.225Z,23.15
2018-06-19T11:41:56.185Z,23.15
2018-06-19T11:42:56.160Z,23.20
2018-06-19T11:43:56.122Z,23.25
2018-06-19T11:44:56.098Z,22.88
2018-06-19T11:45:56.083Z,22.83
2018-06-19T11:46:56.090Z,22.83
2018-06-19T11:47:56.033Z,22.73
2018-06-19T11:48:56.020Z,22.80
2018-06-19T11:49:56.005Z,22.85
2018-06-19T11:50:55.974Z,22.78
2018-06-19T11:51:55.955Z,22.91
2018-06-19T11:52:55.943Z,22.98
2018-06-19T11:53:55.909Z,23.00
2018-06-19T11:54:55.884Z,22.96
2018-06-19T11:55:55.883Z,23.02
2018-06-19T11:56:55.927Z,23.02
2018-06-19T11:57:55.828Z,23.15
2018-06-19T11:58:55.796Z,23.17
2018-06-19T11:59:55.775Z,23.20
2018-06-19T12:00:55.759Z,23.18
2018-06-19T12:01:55.772Z,23.13
2018-06-19T12:02:55.696Z,23.21
2018-06-19T12:03:55.674Z,23.18
2018-06-19T12:04:55.648Z,23.17
2018-06-19T12:05:55.619Z,23.25
2018-06-19T12:06:55.599Z,23.32
2018-06-19T12:07:55.569Z,23.32
2018-06-19T12:08:55.549Z,23.47
2018-06-19T12:09:55.529Z,23.36
2018-06-19T12:10:55.521Z,23.40
2018-06-19T12:11:55.480Z,23.47
2018-06-19T12:12:55.460Z,23.55
2018-06-19T12:13:55.439Z,23.68
2018-06-19T12:14:55.416Z,23.73
2018-06-19T12:15:55.387Z,23.74
2018-06-19T12:16:55.373Z,23.73
2018-06-19T12:17:55.362Z,23.83
2018-06-19T12:18:55.345Z,23.84
2018-06-19T12:19:55.324Z,23.93
2018-06-19T12:20:55.291Z,23.93
2018-06-19T12:21:55.258Z,23.99
2018-06-19T12:22:55.249Z,23.95
2018-06-19T12:23:55.276Z,23.98
2018-06-19T12:24:55.182Z,23.88
2018-06-19T12:25:55.168Z,23.69
2018-06-19T12:26:55.143Z,23.58
2018-06-19T12:27:55.114Z,23.50
2018-06-19T12:28:55.102Z,23.44
2018-06-19T12:29:55.075Z,23.55
2018-06-19T12:30:55.056Z,23.59
2018-06-19T12:31:55.037Z,23.59
2018-06-19T12:32:55.001Z,23.59
2018-06-19T12:33:54.980Z,23.68
2018-06-19T12:34:54.966Z,23.71
2018-06-19T12:35:54.932Z,23.71
2018-06-19T12:36:54.923Z,23.73
2018-06-19T12:37:54.893Z,23.81
2018-06-19T12:38:54.869Z,23.78
2018-06-19T12:39:54.841Z,23.74
2018-06-19T12:40:54.828Z,23.73
2018-06-19T12:41:54.805Z,23.71
2018-06-19T12:42:54.830Z,23.65
2018-06-19T12:43:54.763Z,23.62
2018-06-19T12:44:54.737Z,23.59
2018-06-19T12:45:54.715Z,23.59
2018-06-19T12:46:54.718Z,23.69
2018-06-19T12:47:54.669Z,23.98
2018-06-19T12:48:54.641Z,24.10
2018-06-19T12:49:54.634Z,24.24
2018-06-19T12:50:54.608Z,24.39
2018-06-19T12:51:54.573Z,24.45